地図

経路データ

SID SEASON NUMBER BASIN SUBBASIN NAME ISO_TIME NATURE LAT LON WMO_WIND WMO_PRES WMO_AGENCY TRACK_TYPE DIST2LAND LANDFALL IFLAG USA_AGENCY USA_ATCF_ID USA_LAT USA_LON USA_RECORD USA_STATUS USA_WIND USA_PRES USA_SSHS USA_R34_NE USA_R34_SE USA_R34_SW USA_R34_NW USA_R50_NE USA_R50_SE USA_R50_SW USA_R50_NW USA_R64_NE USA_R64_SE USA_R64_SW USA_R64_NW USA_POCI USA_ROCI USA_RMW USA_EYE TOKYO_LAT TOKYO_LON TOKYO_GRADE TOKYO_WIND TOKYO_PRES TOKYO_R50_DIR TOKYO_R50_LONG TOKYO_R50_SHORT TOKYO_R30_DIR TOKYO_R30_LONG TOKYO_R30_SHORT TOKYO_LAND CMA_LAT CMA_LON CMA_CAT CMA_WIND CMA_PRES HKO_LAT HKO_LON HKO_CAT HKO_WIND HKO_PRES NEWDELHI_LAT NEWDELHI_LON NEWDELHI_GRADE NEWDELHI_WIND NEWDELHI_PRES NEWDELHI_CI NEWDELHI_DP NEWDELHI_POCI REUNION_LAT REUNION_LON REUNION_TYPE REUNION_WIND REUNION_PRES REUNION_TNUM REUNION_CI REUNION_RMW REUNION_R34_NE REUNION_R34_SE REUNION_R34_SW REUNION_R34_NW REUNION_R50_NE REUNION_R50_SE REUNION_R50_SW REUNION_R50_NW REUNION_R64_NE REUNION_R64_SE REUNION_R64_SW REUNION_R64_NW BOM_LAT BOM_LON BOM_TYPE BOM_WIND BOM_PRES BOM_TNUM BOM_CI BOM_RMW BOM_R34_NE BOM_R34_SE BOM_R34_SW BOM_R34_NW BOM_R50_NE BOM_R50_SE BOM_R50_SW BOM_R50_NW BOM_R64_NE BOM_R64_SE BOM_R64_SW BOM_R64_NW BOM_ROCI BOM_POCI BOM_EYE BOM_POS_METHOD BOM_PRES_METHOD NADI_LAT NADI_LON NADI_CAT NADI_WIND NADI_PRES WELLINGTON_LAT WELLINGTON_LON WELLINGTON_WIND WELLINGTON_PRES DS824_LAT DS824_LON DS824_STAGE DS824_WIND DS824_PRES TD9636_LAT TD9636_LON TD9636_STAGE TD9636_WIND TD9636_PRES TD9635_LAT TD9635_LON TD9635_WIND TD9635_PRES TD9635_ROCI NEUMANN_LAT NEUMANN_LON NEUMANN_CLASS NEUMANN_WIND NEUMANN_PRES MLC_LAT MLC_LON MLC_CLASS MLC_WIND MLC_PRES USA_GUST BOM_GUST BOM_GUST_PER REUNION_GUST REUNION_GUST_PER USA_SEAHGT USA_SEARAD_NE USA_SEARAD_SE USA_SEARAD_SW USA_SEARAD_NW STORM_SPEED STORM_DIR
1964027S14151 1964 8 SP EA BERTHA:BERTHE 1964-01-26 23:00:00 NR -14.0500 151.300 1000 bom main 382 393 ______O___O___ -1 -14.0000 151.300 1000 -14.1000 151.300 1 6 96
1964027S14151 1964 8 SP EA BERTHA:BERTHE 1964-01-27 00:00:00 TS -14.0615 151.408 main 395 395 O_____P__OP_O_ jtwc_sh SH121964 -14.1000 151.400 -1 -14.0254 151.389 999 -14.0000 151.400 TC 30 1000 -14.1207 151.392 1 -14.0000 151.500 TC 30 1000 5 101
1964027S14151 1964 8 SP EA BERTHA:BERTHE 1964-01-27 03:00:00 TS -14.1198 151.669 main 406 406 P_____P__PP_P_ SH121964 -14.1500 151.647 -1 -14.1014 151.653 998 -14.0774 151.667 TC 31 999 -14.1810 151.665 1 -14.0375 151.748 TC 32 999 5 103
1964027S14151 1964 8 SP EA BERTHA:BERTHE 1964-01-27 06:00:00 TS -14.1805 151.926 main 423 423 O_____P__PP_O_ jtwc_sh SH121964 -14.2000 151.900 -1 -14.1768 151.909 997 -14.1538 151.927 TC 32 998 -14.2352 151.924 1 -14.1000 152.000 TC 35 998 5 104
1964027S14151 1964 8 SP EA BERTHA:BERTHE 1964-01-27 09:00:00 TS -14.2430 152.176 main 434 434 P_____P__PP_P_ SH121964 -14.2500 152.158 -1 -14.2511 152.150 996 -14.2282 152.174 TC 33 997 -14.2789 152.160 1 -14.2000 152.257 TC 35 997 5 105
1964027S14151 1964 8 SP EA BERTHA:BERTHE 1964-01-27 11:00:00 TS -14.2855 152.332 996 bom main 449 449 P_____O__PO_P_ SH121964 -14.2833 152.322 -1 -14.3000 152.300 996 -14.2764 152.327 TC 34 996 -14.3000 152.300 1 -14.2698 152.422 TC 35 996 5 106
1964027S14151 1964 8 SP EA BERTHA:BERTHE 1964-01-27 12:00:00 TS -14.3053 152.406 main 453 453 O_____P__OP_O_ jtwc_sh SH121964 -14.3000 152.400 -1 -14.3242 152.371 995 -14.3000 152.400 TC 35 996 -14.3078 152.364 1 -14.3000 152.500 TC 35 996 4 106
1964027S14151 1964 8 SP EA BERTHA:BERTHE 1964-01-27 15:00:00 TS -14.3592 152.604 main 472 472 P_____P__PP_P_ SH121964 -14.3574 152.600 -1 -14.3967 152.575 995 -14.3692 152.604 TC 36 995 -14.3242 152.543 1 -14.3499 152.700 TC 37 995 4 105
1964027S14151 1964 8 SP EA BERTHA:BERTHE 1964-01-27 18:00:00 TS -14.4083 152.804 main 482 482 O_____P__PP_O_ jtwc_sh SH121964 -14.4000 152.800 -1 -14.4703 152.783 994 -14.4394 152.806 TC 37 995 -14.3402 152.736 1 -14.4000 152.900 TC 40 995 4 103
1964027S14151 1964 8 SP EA BERTHA:BERTHE 1964-01-27 21:00:00 TS -14.4512 153.026 main 503 503 P_____P__PP_P_ SH121964 -14.3923 152.998 -1 -14.5467 153.018 994 -14.5150 153.030 TC 38 994 -14.3683 152.984 1 -14.4924 153.128 TC 40 994 5 101
1964027S14151 1964 8 SP EA BERTHA:BERTHE 1964-01-27 23:00:00 TS -14.4861 153.211 994 bom main 514 514 P_____O__PO_P_ SH121964 -14.3911 153.180 -1 -14.6000 153.200 994 -14.5703 153.203 TC 39 994 -14.4000 153.200 1 -14.5640 153.303 TC 40 994 6 101
1964027S14151 1964 8 SP EA BERTHA:BERTHE 1964-01-28 00:00:00 TS -14.5073 153.321 main 520 520 O_____P__OP_O_ jtwc_sh SH121964 -14.4000 153.300 -1 -14.6251 153.286 994 -14.6000 153.300 TC 40 994 -14.4186 153.342 1 -14.6000 153.400 TC 40 994 8 102
1964027S14151 1964 8 SP EA BERTHA:BERTHE 1964-01-28 03:00:00 TS -14.5897 153.726 main 553 553 P_____P__PP_P_ SH121964 -14.4777 153.812 -1 -14.7050 153.585 994 -14.6892 153.605 TC 40 994 -14.4888 153.838 1 -14.6998 153.705 TC 40 994 9 102
1964027S14151 1964 8 SP EA BERTHA:BERTHE 1964-01-28 06:00:00 TS -14.6971 154.216 994 bom main 595 595 O_____O__OP_O_ jtwc_sh SH121964 -14.6000 154.400 -1 -14.8000 154.000 994 -14.8000 154.000 TC 40 994 -14.5826 154.393 1 -14.8000 154.100 TC 40 994 10 103
1964027S14151 1964 8 SP EA BERTHA:BERTHE 1964-01-28 09:00:00 TS -14.8176 154.760 main 647 647 P_____P__PP_P_ SH121964 -14.7349 154.923 -1 -14.9104 154.588 994 -14.9371 154.530 TC 40 994 -14.7031 154.953 1 -14.8852 154.643 TC 40 994 11 104
1964027S14151 1964 8 SP EA BERTHA:BERTHE 1964-01-28 11:00:00 TS -14.9136 155.122 994 bom main 678 678 P_____O__PO_P_ SH121964 -14.8416 155.247 -1 -15.0000 155.000 994 -15.0433 154.914 TC 40 994 -14.8000 155.300 1 -14.9553 155.023 TC 40 994 11 106
1964027S14151 1964 8 SP EA BERTHA:BERTHE 1964-01-28 12:00:00 TS -14.9677 155.286 main 701 701 O_____P__OP_O_ jtwc_sh SH121964 -14.9000 155.400 -1 -15.0517 155.176 993 -15.1000 155.100 TC 40 994 -14.8542 155.441 1 -15.0000 155.200 TC 40 994 9 113
1964027S14151 1964 8 SP EA BERTHA:BERTHE 1964-01-28 15:00:00 TS -15.1544 155.719 main 747 735 P_____P__PP_P_ SH121964 -15.0924 155.823 -1 -15.2338 155.647 993 -15.2833 155.574 TC 41 993 -15.0396 155.831 1 -15.1848 155.615 TC 40 993 9 116
1964027S14151 1964 8 SP EA BERTHA:BERTHE 1964-01-28 18:00:00 TS -15.3625 156.109 main 744 733 O_____P__PP_O_ jtwc_sh SH121964 -15.3000 156.200 -1 -15.4423 156.059 992 -15.4857 156.001 TC 42 993 -15.2472 156.191 1 -15.4000 156.000 TC 40 993 9 119
1964027S14151 1964 8 SP EA BERTHA:BERTHE 1964-01-28 21:00:00 TS -15.5730 156.486 main 741 736 P_____P__PP_P_ SH121964 -15.5073 156.535 -1 -15.6595 156.443 992 -15.6952 156.403 TC 43 992 -15.4614 156.549 1 -15.6075 156.450 TC 42 992 8 119
1964027S14151 1964 8 SP EA BERTHA:BERTHE 1964-01-28 23:00:00 TS -15.7083 156.743 992 bom main 741 736 P_____O__PO_P_ SH121964 -15.6389 156.769 -1 -15.8000 156.700 992 -15.8330 156.667 TC 44 992 -15.6000 156.800 1 -15.7390 156.753 TC 44 992 9 117
1964027S14151 1964 8 SP EA BERTHA:BERTHE 1964-01-29 00:00:00 TS -15.7699 156.882 main 741 732 O_____P__OP_O_ jtwc_sh SH121964 -15.7000 156.900 -1 -15.8604 156.847 992 -15.9000 156.800 TC 45 992 -15.6593 156.945 1 -15.8000 156.900 TC 45 992 9 111
1964027S14151 1964 8 SP EA BERTHA:BERTHE 1964-01-29 03:00:00 TS -15.9324 157.336 main 734 730 P_____P__PP_P_ SH121964 -15.8501 157.393 -1 -16.0358 157.289 992 -16.0781 157.241 TC 45 992 -15.8306 157.398 1 -15.9498 157.300 TC 45 992 9 110
1964027S14151 1964 8 SP EA BERTHA:BERTHE 1964-01-29 06:00:00 TS -16.0927 157.794 main 734 719 O_____P__PP_O_ jtwc_sh SH121964 -16.0000 157.900 -1 -16.2070 157.724 992 -16.2500 157.680 TC 45 992 -15.9992 157.862 1 -16.1000 157.700 TC 45 992 9 112
1964027S14151 1964 8 SP EA BERTHA:BERTHE 1964-01-29 09:00:00 TS -16.2757 158.226 main 728 717 P_____P__PP_P_ SH121964 -16.1923 158.315 -1 -16.3802 158.140 992 -16.4219 158.104 TC 45 992 -16.1746 158.315 1 -16.2926 158.165 TC 45 992 9 115
1964027S14151 1964 8 SP EA BERTHA:BERTHE 1964-01-29 11:00:00 TS -16.4053 158.497 992 bom main 721 710 P_____O__PO_P_ SH121964 -16.3306 158.572 -1 -16.5000 158.400 992 -16.5395 158.372 TC 45 992 -16.3000 158.600 1 -16.4307 158.464 TC 45 992 9 117
1964027S14151 1964 8 SP EA BERTHA:BERTHE 1964-01-29 12:00:00 TS -16.4721 158.627 main 710 663 O_____P__OP_O_ jtwc_sh SH121964 -16.4000 158.700 -1 -16.5632 158.527 992 -16.6000 158.500 TC 45 992 -16.3694 158.737 1 -16.5000 158.600 TC 45 992 8 119
1964027S14151 1964 8 SP EA BERTHA:BERTHE 1964-01-29 15:00:00 TS -16.6709 159.006 main 663 624 P_____P__PP_P_ SH121964 -16.5925 159.115 -1 -16.7585 158.887 992 -16.7926 158.870 TC 45 992 -16.5894 159.131 1 -16.6998 158.915 TC 45 992 8 120
1964027S14151 1964 8 SP EA BERTHA:BERTHE 1964-01-29 18:00:00 TS -16.8786 159.353 main 616 577 O_____P__PP_O_ jtwc_sh SH121964 -16.8000 159.500 -1 -16.9598 159.217 992 -16.9922 159.210 TC 45 992 -16.8196 159.491 1 -16.9000 159.200 TC 45 992 8 124
1964027S14151 1964 8 SP EA BERTHA:BERTHE 1964-01-29 21:00:00 TS -17.1017 159.679 main 577 553 P_____P__PP_P_ SH121964 -17.0499 159.830 -1 -17.1639 159.517 992 -17.1958 159.520 TC 45 992 -17.0504 159.811 1 -17.1001 159.565 TC 45 992 7 127
1964027S14151 1964 8 SP EA BERTHA:BERTHE 1964-01-29 23:00:00 TS -17.2508 159.874 992 bom main 546 546 P_____O__PO_P_ SH121964 -17.2197 160.017 -1 -17.3000 159.700 992 -17.3321 159.710 TC 45 992 -17.2000 160.000 1 -17.2334 159.798 TC 45 992 7 129
1964027S14151 1964 8 SP EA BERTHA:BERTHE 1964-01-30 00:00:00 TS -17.3223 159.964 main 538 507 O_____P__OP_O_ jtwc_sh SH121964 -17.3000 160.100 -1 -17.3678 159.791 992 -17.4000 159.800 TC 45 992 -17.2662 160.092 1 -17.3000 159.900 TC 45 992 6 131
1964027S14151 1964 8 SP MM BERTHA:BERTHE 1964-01-30 03:00:00 TS -17.5247 160.201 main 507 477 P_____P__PP_P_ SH121964 -17.5074 160.323 -1 -17.5719 160.043 992 -17.6039 160.066 TC 45 992 -17.4580 160.336 1 -17.4999 160.115 TC 45 992 6 134
1964027S14151 1964 8 SP MM BERTHA:BERTHE 1964-01-30 06:00:00 TS -17.7218 160.401 main 477 446 O_____P__PP_O_ jtwc_sh SH121964 -17.7000 160.500 -1 -17.7744 160.268 992 -17.8073 160.303 TC 45 992 -17.6491 160.539 1 -17.7000 160.300 TC 45 992 5 136
1964027S14151 1964 8 SP MM BERTHA:BERTHE 1964-01-30 09:00:00 TS -17.9182 160.596 main 446 431 P_____P__PP_P_ SH121964 -17.8850 160.665 -1 -17.9723 160.472 992 -18.0071 160.513 TC 45 992 -17.8521 160.705 1 -17.9075 160.557 TC 45 992 5 138
1964027S14151 1964 8 SP MM BERTHA:BERTHE 1964-01-30 11:00:00 TS -18.0533 160.714 992 bom main 425 416 P_____O__PO_P_ SH121964 -18.0219 160.758 -1 -18.1000 160.600 992 -18.1366 160.640 TC 45 992 -18.0000 160.800 2 -18.0391 160.725 TC 45 992 5 142
1964027S14151 1964 8 SP MM BERTHA:BERTHE 1964-01-30 12:00:00 TS -18.1239 160.768 main 416 394 O_____P__OP_O_ jtwc_sh SH121964 -18.1000 160.800 -1 -18.1580 160.668 992 -18.2000 160.700 TC 45 992 -18.0852 160.842 2 -18.1000 160.800 TC 45 992 5 148
1964027S14151 1964 8 SP MM BERTHA:BERTHE 1964-01-30 15:00:00 TS -18.3481 160.906 main 394 367 P_____P__PP_P_ SH121964 -18.3925 160.900 -1 -18.3249 160.860 992 -18.3699 160.876 TC 45 992 -18.3590 160.944 2 -18.2499 160.958 TC 45 992 5 151
1964027S14151 1964 8 SP MM BERTHA:BERTHE 1964-01-30 18:00:00 TS -18.5785 161.033 main 367 337 O_____P__PP_O_ jtwc_sh SH121964 -18.7000 161.000 -1 -18.4910 161.038 992 -18.5349 161.030 TC 45 992 -18.6455 161.028 2 -18.4000 161.100 TC 45 992 5 151
1964027S14151 1964 8 SP MM BERTHA:BERTHE 1964-01-30 21:00:00 TS -18.8028 161.178 main 337 323 P_____P__PP_P_ SH121964 -18.9650 161.135 -1 -18.6688 161.200 992 -18.7074 161.170 TC 45 992 -18.9258 161.121 2 -18.5850 161.307 TC 45 992 5 148
1964027S14151 1964 8 SP MM BERTHA:BERTHE 1964-01-30 23:00:00 TS -18.9513 161.280 992 bom main 317 317 P_____O__PO_P_ SH121964 -19.1250 161.242 -1 -18.8000 161.300 992 -18.8328 161.257 TC 45 992 -19.1000 161.200 1 -18.7250 161.442 TC 45 992 5 146
1964027S14151 1964 8 SP MM BERTHA:BERTHE 1964-01-31 00:00:00 TS -19.0252 161.335 main 317 289 O_____P__OP_O_ jtwc_sh SH121964 -19.2000 161.300 -1 -18.8745 161.352 992 -18.9000 161.300 TC 45 992 -19.1768 161.261 1 -18.8000 161.500 TC 45 992 5 145
1964027S14151 1964 8 SP MM BERTHA:BERTHE 1964-01-31 03:00:00 TS -19.2467 161.502 main 289 256 P_____P__PP_P_ SH121964 -19.4075 161.500 -1 -19.1150 161.499 992 -19.1168 161.441 TC 45 992 -19.3906 161.467 1 -19.0424 161.608 TC 45 992 5 145
1964027S14151 1964 8 SP MM BERTHA:BERTHE 1964-01-31 06:00:00 TS -19.4690 161.665 main 256 239 O_____P__PP_O_ jtwc_sh SH121964 -19.6000 161.700 -1 -19.3714 161.629 992 -19.3560 161.573 TC 45 992 -19.5868 161.688 1 -19.3000 161.700 TC 45 992 5 147
1964027S14151 1964 8 SP MM BERTHA:BERTHE 1964-01-31 09:00:00 TS -19.6993 161.818 main 239 226 P_____P__PP_P_ SH121964 -19.8075 161.865 -1 -19.6312 161.739 992 -19.6172 161.694 TC 45 992 -19.7747 161.890 1 -19.5575 161.857 TC 45 992 5 149
1964027S14151 1964 8 SP MM BERTHA:BERTHE 1964-01-31 11:00:00 TS -19.8506 161.907 992 bom main 223 223 P_____O__PO_P_ SH121964 -19.9390 161.958 -1 -19.8000 161.800 992 -19.8034 161.766 TC 45 992 -19.9000 162.000 1 -19.7224 161.959 TC 45 992 5 152
1964027S14151 1964 8 SP MM BERTHA:BERTHE 1964-01-31 12:00:00 TS -19.9196 161.944 main 223 209 O_____P__OP_O_ jtwc_sh SH121964 -20.0000 162.000 -1 -19.8673 161.827 992 -19.9000 161.800 TC 45 992 -19.9506 162.039 1 -19.8000 162.000 TC 45 992 4 155
1964027S14151 1964 8 SP MM BERTHA:BERTHE 1964-01-31 15:00:00 TS -20.1072 162.036 main 209 198 P_____P__PP_P_ SH121964 -20.1425 162.123 -1 -20.0590 161.891 992 -20.2036 161.889 TC -20.0959 162.125 1 -20.0000 162.065 TC 45 992 4 160
1964027S14151 1964 8 SP MM BERTHA:BERTHE 1964-01-31 18:00:00 TS -20.3081 162.095 main 198 198 O_____P__PP_O_ jtwc_sh SH121964 -20.3000 162.200 -1 -20.2599 161.937 992 -20.5257 161.963 TC -20.2630 162.173 1 -20.2000 162.100 TC 45 992 4 168
1964027S14151 1964 8 SP MM BERTHA:BERTHE 1964-01-31 21:00:00 TS -20.5416 162.129 main 199 199 P_____P__PP_P_ SH121964 -20.4900 162.215 -1 -20.5012 161.975 992 -20.8637 162.023 TC -20.4924 162.194 1 -20.4125 162.150 TC 45 992 5 176
1964027S14151 1964 8 SP MM BERTHA:BERTHE 1964-01-31 23:00:00 TS -20.7404 162.142 992 bom main 202 202 P_____O__PO_P_ SH121964 -20.6772 162.205 -1 -20.7000 162.000 992 4 -21.0966 162.057 TC -20.7000 162.200 1 -20.5912 162.183 TC 45 992 6 177
1964027S14151 1964 8 SP MM BERTHA:BERTHE 1964-02-01 00:00:00 TS -20.8602 162.150 main 208 198 O_____P__PP_O_ jtwc_sh SH121964 -20.8000 162.200 -1 -20.8149 162.019 992 -21.2151 162.072 TC -20.8314 162.207 1 -20.7000 162.200 TC 45 992 8 177
1964027S14151 1964 8 SP MM BERTHA:BERTHE 1964-02-01 03:00:00 TS -21.3019 162.176 main 217 217 P_____P__PP_P_ SH121964 -21.3050 162.200 -1 -21.2072 162.077 992 -21.5770 162.112 TC -21.2973 162.216 1 -21.1200 162.250 TC 45 992 10 178
1964027S14151 1964 8 SP MM BERTHA:BERTHE 1964-02-01 06:00:00 TS -21.8075 162.198 main 251 251 O_____P__PP_O_ jtwc_sh SH121964 -21.9000 162.200 -1 -21.6587 162.132 992 -21.9470 162.145 TC -21.8391 162.213 1 -21.6000 162.300 TC 45 992 10 178
1964027S14151 1964 8 SP MM BERTHA:BERTHE 1964-02-01 09:00:00 TS -22.3063 162.221 main 282 282 P_____P__PP_P_ SH121964 -22.4575 162.200 -1 -22.1536 162.178 992 -22.3222 162.173 TC -22.4160 162.205 1 -22.0350 162.357 TC 45 992 10 177
1964027S14151 1964 8 SP MM BERTHA:BERTHE 1964-02-01 11:00:00 TS -22.6491 162.234 992 bom main 303 303 P_____O__PO_P_ SH121964 -22.8224 162.200 -1 -22.5000 162.200 992 -22.5739 162.191 TC -22.8000 162.200 1 -22.3386 162.389 TC 45 992 10 179
1964027S14151 1964 8 SP MM BERTHA:BERTHE 1964-02-01 12:00:00 TS -22.8082 162.243 main 318 318 O_____P__OP_O_ jtwc_sh SH121964 -23.0000 162.200 -1 -22.6765 162.208 992 -22.7000 162.200 TC 45 992 -22.9877 162.198 1 -22.5000 162.400 TC 45 992 10 0
1964027S14151 1964 8 SP MM BERTHA:BERTHE 1964-02-01 15:00:00 TS -23.3232 162.256 main 341 341 P_____P___P_P_ SH121964 -23.5100 162.200 -1 -23.2160 162.220 993 TC -23.5320 162.195 1 -23.0350 162.408 TC 42 993 10 179
1964027S14151 1964 8 SP MM BERTHA:BERTHE 1964-02-01 18:00:00 TS -23.8221 162.270 main 378 378 O_____P___P_O_ jtwc_sh SH121964 -24.0000 162.200 -1 -23.7672 162.219 994 TC -24.0547 162.195 1 -23.6000 162.400 TC 40 994 10 177
1964027S14151 1964 8 SP MM BERTHA:BERTHE 1964-02-01 21:00:00 TS -24.3206 162.287 main 419 419 ______P___P_P_ SH121964 -1 -24.3258 162.209 995 TC -24.5640 162.198 1 -24.1550 162.397 TC 37 995 10 179
1964027S14151 1964 8 SP MM BERTHA:BERTHE 1964-02-01 23:00:00 TS -24.6594 162.299 996 bom main 454 448 ______O___O_P_ SH121964 -1 -24.7000 162.200 996 TC -24.9000 162.200 1 -24.5188 162.399 TC 35 995 8 165
1964027S14151 1964 8 SP MM BERTHA:BERTHE 1964-02-02 00:00:00 TS -24.7000 162.400 main 448 ____________O_ -1 TC 1 -24.7000 162.400 TC 35 996 6 115

デジタル台風データ・検索

IBTrACS Databaseについて

本データベースは、米国NOAAが公開する1842年以降の世界の熱帯低気圧のベストトラックデータアーカイブInternational Best Track Archive for Climate Stewardship (IBTrACS)を、ウェブで閲覧しやすい形式に変換したものです。

最終更新日:2021-10-21